Nearby METAR Reports

 

KBUF - Buffalo/Cheektow, New York, USA
Distance from station: ENE 2mi, 3km
Updated: 01/18/2018 6:11am
Mostly cloudy
Mostly cloudy
 Wind from WSW
Wind: WSW 26 mph , 43 km/h, Gust: 35 mph , 56 km/h
Temperature: 18°F , -8°C
Wind Chill: -0°F , -18°C
Dew Point: 10°F , -12°C
Humidity: 73%
Barometer: 30.05 inHg , 1017.6 hPa
Clouds: Mostly cloudy
Visibility: 8 miles , 13 km
Cloud details: Mostly cloudy 2400 ft
2018/01/18 11:11 KBUF 181111Z 24023G30KT 8SM BKN024 M08/M12 A3005 RMK AO2 PK WND 23030/1110 T10781117 $
KIAG - Niagara Falls, New York, USA
Distance from station: NNW 16mi, 25km
Updated: 01/18/2018 5:53am
Mostly cloudy
Mostly cloudy
 Wind from WSW
Wind: WSW 22 mph , 35 km/h, Gust: 31 mph , 50 km/h
Temperature: 19°F , -7°C
Wind Chill: 2°F , -17°C
Dew Point: 10°F , -12°C
Humidity: 68%
Barometer: 30.04 inHg , 1017.3 hPa
Clouds: Mostly cloudy
Visibility: 9 miles , 14 km
Cloud details: Mostly cloudy 1900 ft
2018/01/18 10:53 KIAG 181053Z AUTO 24019G27KT 9SM BKN019 M07/M12 A3004 RMK AO2 PK WND 23028/1012 SLP193 T10671117
 
CYSN - St. Catharines A, Ontario, Canada
Distance from station: NW 28mi, 45km
Updated: 01/17/2018 9:00pm
NOT Current
Low drifting snow, Few clouds
Low drifting snow, Few clouds
 Wind from SW
Wind: SW 28 mph , 44 km/h, Gust: 43 mph , 69 km/h
Temperature: 21°F , -6°C
Wind Chill: 3°F , -16°C
Dew Point: 16°F , -9°C
Humidity: 80%
Barometer: 30.17 inHg , 1021.7 hPa
Summary: Low Drifting Snow
Clouds: Few Clouds
Visibility: 15 miles , 24 km
Cloud details: Few Clouds 4000 ft
2018/01/18 02:00 CYSN 180200Z 23024G37KT 15SM DRSN FEW040 M06/M09 A3017 RMK SC2 LAST STFD OBS/NEXT 181200 UTC SLP225
CWWZ - Port Weller (mar, Ontario, Canada
Distance from station: NW 32mi, 51km
Updated: 01/18/2018 6:00am

 Wind from WSW
Wind: WSW 12 mph , 19 km/h, Gust: 20 mph , 31 km/h
Temperature: 21°F , -6°C
Wind Chill: 9°F , -13°C
Dew Point: 16°F , -9°C
Humidity: 80%
2018/01/18 11:00 CWWZ 181100Z AUTO 24010G17KT M06/M09 RMK AO1 SOG 03 5007 PK WND 23021/1006 SLP184 T10561087
 
CXVN - Vineland (au8), Ontario, Canada
Distance from station: WNW 37mi, 59km
Updated: 01/18/2018 6:00am

 Wind from SW
Wind: SW 18 mph , 30 km/h
Temperature: 19°F , -7°C
Wind Chill: 4°F , -16°C
Dew Point: 12°F , -11°C
Humidity: 73%
2018/01/18 11:00 CXVN 181100Z AUTO 23016KT M07/M11 RMK AO1 SOG 04 5006 PK WND 23026/1001 SLP180 T10701109 50001
KDKK - Dunkirk, New York, USA
Distance from station: SW 39mi, 63km
Updated: 01/18/2018 5:53am
Clear
Clear
 Wind from SW
Wind: SW 14 mph , 22 km/h
Temperature: 16°F , -9°C
Wind Chill: 2°F , -17°C
Dew Point: 5°F , -15°C
Humidity: 62%
Barometer: 30.09 inHg , 1019 hPa
Clouds: Clear
Visibility: 10 miles , 16 km
2018/01/18 10:53 KDKK 181053Z AUTO 22012KT 10SM CLR M09/M15 A3009 RMK AO2 SLP204 T10941150
 
KOLE - Olean, New York, USA
Distance from station: SSE 52mi, 83km
Updated: 01/18/2018 6:15am
Clear
Clear
 Wind from WSW
Wind: WSW 6 mph , 9 km/h
Temperature: 7°F , -14°C
Wind Chill: -4°F , -20°C
Dew Point: 1°F , -17°C
Humidity: 78%
Barometer: 29.96 inHg , 1014.6 hPa
Clouds: Clear
Visibility: 10 miles , 16 km
2018/01/18 11:15 KOLE 181115Z AUTO 24005KT 10SM CLR M14/M17 A2996 RMK AO2
KROC - Rochester, New York, USA
Distance from station: ENE 56mi, 91km
Updated: 01/18/2018 5:54am
Few Clouds
Few Clouds
 Wind from WSW
Wind: WSW 15 mph , 24 km/h
Temperature: 18°F , -8°C
Wind Chill: 4°F , -16°C
Dew Point: 7°F , -14°C
Humidity: 62%
Barometer: 30.04 inHg , 1017.3 hPa
Clouds: Few Clouds
Visibility: 10 miles , 16 km
Cloud details: Few Clouds 25000 ft
2018/01/18 10:54 KROC 181054Z 25013KT 10SM FEW250 M08/M14 A3004 RMK AO2 PK WND 27026/0957 SLP186 DRSN T10781139
 
CWWB - Burlington Piers, Ontario, Canada
Distance from station: WNW 57mi, 92km
Updated: 01/18/2018 6:00am

 
Temperature: 19°F , -7°C
Dew Point: 10°F , -12°C
Humidity: 68%
2018/01/18 11:00 CWWB 181100Z AUTO M07/M12 RMK AO1 SLP181 T10651117 56004
CYTZ - Toronto Il Vor, Ontario, Canada
Distance from station: NNW 58mi, 94km
Updated: 01/18/2018 6:00am
Overcast
Overcast
 Wind from WSW
Wind: WSW 24 mph , 39 km/h
Temperature: 19°F , -7°C
Wind Chill: 2°F , -17°C
Dew Point: 12°F , -11°C
Humidity: 73%
Barometer: 30.04 inHg , 1017.3 hPa
Clouds: Overcast
Visibility: 9 miles , 14 km
Cloud details: Overcast 3000 ft
2018/01/18 11:00 CYTZ 181100Z AUTO 25021KT 9SM OVC030 M07/M11 A3004 RMK SLP179
 
KDSV - Dansville, New York, USA
Distance from station: ESE 59mi, 95km
Updated: 01/18/2018 5:54am
Clear
Clear
 Wind from SSE
Wind: SSE 6 mph , 9 km/h
Temperature: 9°F , -13°C
Wind Chill: -1°F , -18°C
Dew Point: 1°F , -17°C
Humidity: 72%
Barometer: 30.06 inHg , 1017.9 hPa
Clouds: Clear
Visibility: 10 miles , 16 km
2018/01/18 10:54 KDSV 181054Z AUTO 15005KT 10SM CLR M13/M17 A3006 RMK AO2 SLP203 T11281172
CXTO - Toronto City, Ontario, Canada
Distance from station: NNW 60mi, 97km
Updated: 01/18/2018 6:00am

 
Temperature: 19°F , -7°C
Dew Point: 10°F , -12°C
Humidity: 68%
2018/01/18 11:00 CXTO 181100Z AUTO M07/M12 RMK AO1 SOG 04 5003 SLP174 T10741115
 
KJHW - Jamestown, New York, USA
Distance from station: SSW 60mi, 97km
Updated: 01/18/2018 5:56am
Clear
Clear
 Wind from SW
Wind: SW 14 mph , 22 km/h
Temperature: 7°F , -14°C
Wind Chill: -10°F , -23°C
Dew Point: 1°F , -17°C
Humidity: 78%
Barometer: 30.04 inHg , 1017.3 hPa
Clouds: Clear
Visibility: 10 miles , 16 km
2018/01/18 10:56 KJHW 181056Z AUTO 22012KT 10SM CLR M14/M17 A3004 RMK AO2 SLP214 T11441167 FZRANO
CYHM - Hamilton Airport, Ontario, Canada
Distance from station: WNW 61mi, 98km
Updated: 01/18/2018 6:00am
Low drifting snow, Overcast
Low drifting snow, Overcast
 Wind from SW
Wind: SW 21 mph , 33 km/h, Gust: 28 mph , 44 km/h
Temperature: 18°F , -8°C
Wind Chill: 1°F , -17°C
Dew Point: 9°F , -13°C
Humidity: 68%
Barometer: 30.01 inHg , 1016.3 hPa
Summary: Low Drifting Snow
Clouds: Overcast
Visibility: 15 miles , 24 km
Cloud details: Overcast 2300 ft
2018/01/18 11:00 CYHM 181100Z 23018G24KT 15SM DRSN OVC023 M08/M13 A3001 RMK SC8 SLP180
 
CXHM - Hamilton Rbg Cs, Ontario, Canada
Distance from station: WNW 62mi, 100km
Updated: 01/18/2018 6:00am

 Wind from WSW
Wind: WSW 8 mph , 13 km/h
Temperature: 19°F , -7°C
Wind Chill: 9°F , -13°C
Dew Point: 12°F , -11°C
Humidity: 73%
2018/01/18 11:00 CXHM 181100Z AUTO 24007KT M07/M11 RMK AO1 PK WND 26017/1046 SLP176 T10651112 56006
CYYZ - Toronto/Pearson, Ontario, Canada
Distance from station: NW 67mi, 107km
Updated: 01/18/2018 6:00am
Overcast
Overcast
 Wind from SW
Wind: SW 14 mph , 22 km/h, Gust: 20 mph , 31 km/h
Temperature: 16°F , -9°C
Wind Chill: 2°F , -17°C
Dew Point: 9°F , -13°C
Humidity: 73%
Barometer: 30.01 inHg , 1016.3 hPa
Clouds: Overcast
Visibility: 15 miles , 24 km
Cloud details: Overcast 2500 ft
2018/01/18 11:00 CYYZ 181100Z 23012G17KT 15SM OVC025 M09/M13 A3001 RMK SC8 SLP176
 
CWPS - Long Point (maps, Ontario, Canada
Distance from station: WSW 69mi, 111km
Updated: 01/18/2018 5:00am
NOT Current

 Wind from S
Wind: S 32 mph , 52 km/h, Gust: 39 mph , 63 km/h
Temperature: 16°F , -9°C
Wind Chill: -5°F , -21°C
Dew Point: 10°F , -12°C
Humidity: 79%
2018/01/18 10:00 CWPS 181000Z AUTO 18028G34KT M09/M12 RMK AO1 PK WND 18034/0903 SLP191 T10911122 58001
CYOO - Oshawa, Ontario, Canada
Distance from station: N 69mi, 111km
Updated: 01/18/2018 6:00am
Overcast
Overcast
 Wind from WSW
Wind: WSW 8 mph , 13 km/h
Temperature: 18°F , -8°C
Wind Chill: 8°F , -13°C
Dew Point: 9°F , -13°C
Humidity: 68%
Barometer: 30.00 inHg , 1015.9 hPa
Clouds: Overcast
Visibility: 9 miles , 14 km
Cloud details: Overcast 2900 ft
2018/01/18 11:00 CYOO 181100Z AUTO 24007KT 9SM OVC029 M08/M13 A3000 RMK SLP169
 
KELZ - Wellsville, New York, USA
Distance from station: SE 70mi, 112km
Updated: 01/18/2018 5:56am
Clear
Clear
 Wind from WSW
Wind: WSW 9 mph , 15 km/h
Temperature: 9°F , -13°C
Wind Chill: -4°F , -20°C
Dew Point: 1°F , -17°C
Humidity: 72%
Barometer: 29.98 inHg , 1015.2 hPa
Clouds: Clear
Visibility: 10 miles , 16 km
2018/01/18 10:56 KELZ 181056Z AUTO 25008KT 10SM CLR M13/M17 A2998 RMK AO2 SLP197 T11331172 $
CYKZ - Toronto Buttonvi, Ontario, Canada
Distance from station: NNW 72mi, 116km
Updated: 01/18/2018 6:00am
Overcast
Overcast
 Wind from SW
Wind: SW 13 mph , 20 km/h, Gust: 18 mph , 30 km/h
Temperature: 16°F , -9°C
Wind Chill: 2°F , -17°C
Dew Point: 9°F , -13°C
Humidity: 73%
Barometer: 29.99 inHg , 1015.6 hPa
Clouds: Overcast
Visibility: 15 miles , 24 km
Cloud details: Overcast 2500 ft
2018/01/18 11:00 CYKZ 181100Z 23011G16KT 15SM OVC025 M09/M13 A2999 RMK SC8 SLP171